createdAt,value
2022-12-20T00:01:31.441Z,5.45
2022-12-20T00:04:02.569Z,4.22
2022-12-20T00:06:29.881Z,6.55
2022-12-20T00:09:01.804Z,3.85
2022-12-20T00:11:29.995Z,3.38
2022-12-20T00:13:58.432Z,3.30
2022-12-20T00:16:27.489Z,3.58
2022-12-20T00:18:57.363Z,3.13
2022-12-20T00:21:24.988Z,2.95
2022-12-20T00:23:52.833Z,4.30
2022-12-20T00:26:22.732Z,2.05
2022-12-20T00:28:49.994Z,4.13
2022-12-20T00:31:18.257Z,4.85
2022-12-20T00:33:47.178Z,4.65
2022-12-20T00:36:14.174Z,2.78
2022-12-20T00:38:41.323Z,3.85
2022-12-20T00:41:10.836Z,3.75
2022-12-20T00:43:38.440Z,7.05
2022-12-20T00:46:06.816Z,4.05
2022-12-20T00:48:34.151Z,5.20
2022-12-20T00:51:09.098Z,2.65
2022-12-20T00:53:37.093Z,3.08
2022-12-20T00:56:05.180Z,5.53
2022-12-20T00:58:34.827Z,4.32
2022-12-20T01:01:01.766Z,2.97
2022-12-20T01:03:29.239Z,2.00
2022-12-20T01:06:01.329Z,3.38
2022-12-20T01:08:30.286Z,3.72
2022-12-20T01:11:10.986Z,3.83
2022-12-20T01:13:39.742Z,4.30
2022-12-20T01:16:09.283Z,4.10
2022-12-20T01:18:36.052Z,2.70
2022-12-20T01:21:09.190Z,5.20
2022-12-20T01:23:36.405Z,2.92
2022-12-20T01:26:05.119Z,6.68
2022-12-20T01:28:32.882Z,3.25
2022-12-20T01:31:00.061Z,6.25
2022-12-20T01:33:27.329Z,5.78
2022-12-20T01:35:59.308Z,9.60
2022-12-20T01:38:26.663Z,3.10
2022-12-20T01:40:53.600Z,6.72
2022-12-20T01:43:21.819Z,4.97
2022-12-20T01:45:48.683Z,4.47
2022-12-20T01:48:21.531Z,4.63
2022-12-20T01:50:49.896Z,4.90
2022-12-20T01:53:21.304Z,4.82
2022-12-20T01:55:48.426Z,5.05
2022-12-20T01:58:18.061Z,3.83
2022-12-20T02:00:44.894Z,5.15
2022-12-20T02:03:14.658Z,4.93
2022-12-20T02:05:45.256Z,5.60
2022-12-20T02:08:14.806Z,6.72
2022-12-20T02:10:47.626Z,4.57
2022-12-20T02:13:25.979Z,7.20
2022-12-20T02:15:56.141Z,4.10
2022-12-20T02:18:39.128Z,7.18
2022-12-20T02:21:24.858Z,4.40
2022-12-20T02:24:18.711Z,3.83
2022-12-20T02:27:17.918Z,5.82
2022-12-20T02:30:08.245Z,5.50
2022-12-20T02:32:51.158Z,5.50
2022-12-20T02:35:27.405Z,4.03
2022-12-20T02:37:58.023Z,3.75
2022-12-20T02:40:30.349Z,4.90
2022-12-20T02:43:01.691Z,6.45
2022-12-20T02:45:34.742Z,4.17
2022-12-20T02:48:07.941Z,4.70
2022-12-20T02:50:43.521Z,3.47
2022-12-20T02:53:10.774Z,4.10
2022-12-20T02:56:01.771Z,5.75
2022-12-20T02:58:38.285Z,5.03
2022-12-20T03:01:11.767Z,4.63
2022-12-20T03:03:39.505Z,5.93
2022-12-20T03:06:06.839Z,4.60
2022-12-20T03:08:33.553Z,5.50
2022-12-20T03:11:00.873Z,4.30
2022-12-20T03:13:30.105Z,6.70
2022-12-20T03:16:03.400Z,5.00
2022-12-20T03:18:30.097Z,3.65
2022-12-20T03:20:56.869Z,3.45
2022-12-20T03:23:23.625Z,7.03
2022-12-20T03:25:52.931Z,5.43
2022-12-20T03:28:28.403Z,5.43
2022-12-20T03:30:56.259Z,5.95
2022-12-20T03:33:23.185Z,5.28
2022-12-20T03:35:50.666Z,5.30
2022-12-20T03:38:18.531Z,4.65
2022-12-20T03:40:45.323Z,4.03
2022-12-20T03:43:14.564Z,6.05
2022-12-20T03:45:41.787Z,4.95
2022-12-20T03:48:09.523Z,4.10
2022-12-20T03:50:37.182Z,5.05
2022-12-20T03:53:04.090Z,6.20
2022-12-20T03:55:32.768Z,5.80
2022-12-20T03:58:00.178Z,7.15
2022-12-20T04:00:31.435Z,7.78
2022-12-20T04:03:15.877Z,6.15
2022-12-20T04:05:42.652Z,6.10
2022-12-20T04:08:09.492Z,4.72
2022-12-20T04:10:58.881Z,5.82
2022-12-20T04:13:29.789Z,4.65
2022-12-20T04:16:00.315Z,4.57
2022-12-20T04:18:30.118Z,2.88
2022-12-20T04:21:00.840Z,6.25
2022-12-20T04:23:30.131Z,5.50
2022-12-20T04:25:56.893Z,3.78
2022-12-20T04:28:23.629Z,5.40
2022-12-20T04:30:51.617Z,6.13
2022-12-20T04:33:23.952Z,4.65
2022-12-20T04:35:51.927Z,5.43
2022-12-20T04:38:22.097Z,4.95
2022-12-20T04:40:50.939Z,5.30
2022-12-20T04:43:18.725Z,7.30
2022-12-20T04:45:48.419Z,4.88
2022-12-20T04:48:54.625Z,9.20
2022-12-20T04:51:02.658Z,4.50
2022-12-20T04:53:47.813Z,5.30
2022-12-20T04:56:28.693Z,6.28
2022-12-20T04:59:00.165Z,8.85
2022-12-20T05:01:27.817Z,4.85
2022-12-20T05:03:55.303Z,4.55
2022-12-20T05:06:22.465Z,7.53
2022-12-20T05:08:49.938Z,7.22
2022-12-20T05:11:16.855Z,4.32
2022-12-20T05:13:43.961Z,5.40
2022-12-20T05:16:11.119Z,5.18
2022-12-20T05:18:41.721Z,7.82
2022-12-20T05:21:34.090Z,5.32
2022-12-20T05:24:19.368Z,4.53
2022-12-20T05:27:11.813Z,4.10
2022-12-20T05:29:38.602Z,5.80
2022-12-20T05:32:05.356Z,6.18
2022-12-20T05:34:35.102Z,4.50
2022-12-20T05:37:01.917Z,4.20
2022-12-20T05:39:31.442Z,6.43
2022-12-20T05:42:01.738Z,6.88
2022-12-20T05:44:28.632Z,4.47
2022-12-20T05:46:57.897Z,4.88
2022-12-20T05:49:28.843Z,4.82
2022-12-20T05:51:56.910Z,4.70
2022-12-20T05:54:25.633Z,3.85
2022-12-20T05:56:57.417Z,6.03
2022-12-20T05:59:32.887Z,3.65
2022-12-20T06:02:00.119Z,5.43
2022-12-20T06:04:27.179Z,10.23
2022-12-20T06:06:54.265Z,5.80
2022-12-20T06:09:21.295Z,4.78
2022-12-20T06:11:55.444Z,4.35
2022-12-20T06:14:22.806Z,3.65
2022-12-20T06:16:50.793Z,5.20
2022-12-20T06:19:21.876Z,6.95
2022-12-20T06:21:51.275Z,4.07
2022-12-20T06:24:25.461Z,6.30
2022-12-20T06:26:53.803Z,4.13
2022-12-20T06:29:21.247Z,5.15
2022-12-20T06:31:55.356Z,4.22
2022-12-20T06:34:22.939Z,5.38
2022-12-20T06:36:50.182Z,6.38
2022-12-20T06:39:21.440Z,5.70
2022-12-20T06:42:02.752Z,2.78
2022-12-20T06:44:29.892Z,5.75
2022-12-20T06:46:56.737Z,4.70
2022-12-20T06:49:24.087Z,4.03
2022-12-20T06:51:51.481Z,4.57
2022-12-20T06:54:22.882Z,4.28
2022-12-20T06:56:50.884Z,4.82
2022-12-20T06:59:17.813Z,4.10
2022-12-20T07:01:45.168Z,3.78
2022-12-20T07:04:15.032Z,8.68
2022-12-20T07:06:41.856Z,4.15
2022-12-20T07:09:09.309Z,3.30
2022-12-20T07:11:38.018Z,4.30
2022-12-20T07:14:04.882Z,2.95
2022-12-20T07:16:32.427Z,8.32
2022-12-20T07:18:59.328Z,4.30
2022-12-20T07:21:26.154Z,2.83
2022-12-20T07:23:53.557Z,2.63
2022-12-20T07:26:20.719Z,5.28
2022-12-20T07:28:47.549Z,3.28
2022-12-20T07:31:14.740Z,2.50
2022-12-20T07:33:41.668Z,4.22
2022-12-20T07:36:11.882Z,4.82
2022-12-20T07:38:38.935Z,2.60
2022-12-20T07:41:10.994Z,5.10
2022-12-20T07:43:38.349Z,2.38
2022-12-20T07:46:06.592Z,3.38
2022-12-20T07:48:34.356Z,2.88
2022-12-20T07:51:15.882Z,2.92
2022-12-20T07:53:48.614Z,3.33
2022-12-20T07:56:16.605Z,3.22
2022-12-20T07:58:44.465Z,7.95
2022-12-20T08:01:12.911Z,1.95
2022-12-20T08:03:45.510Z,4.55
2022-12-20T08:08:44.770Z,3.70
2022-12-20T08:11:12.586Z,3.13
2022-12-20T08:13:46.016Z,3.53
2022-12-20T08:16:13.599Z,1.85
2022-12-20T08:18:40.586Z,5.88
2022-12-20T08:21:07.610Z,4.88
2022-12-20T08:23:34.988Z,4.05
2022-12-20T08:26:02.315Z,2.47
2022-12-20T08:28:29.124Z,2.83
2022-12-20T08:31:06.505Z,4.82
2022-12-20T08:33:35.074Z,3.55
2022-12-20T08:36:04.468Z,7.00
2022-12-20T08:38:32.096Z,2.72
2022-12-20T08:41:07.101Z,4.10
2022-12-20T08:43:34.846Z,3.58
2022-12-20T08:46:01.896Z,2.35
2022-12-20T08:48:28.881Z,2.40
2022-12-20T08:50:57.629Z,2.47
2022-12-20T08:53:25.102Z,3.55
2022-12-20T08:55:52.739Z,3.72
2022-12-20T08:58:20.475Z,7.85
2022-12-20T09:00:47.503Z,4.25
2022-12-20T09:03:15.326Z,4.97
2022-12-20T09:05:49.048Z,5.35
2022-12-20T09:08:16.840Z,8.40
2022-12-20T09:10:43.906Z,4.05
2022-12-20T09:13:11.650Z,4.20
2022-12-20T09:15:38.915Z,3.08
2022-12-20T09:18:05.897Z,4.70
2022-12-20T09:20:32.944Z,3.67
2022-12-20T09:23:00.371Z,4.95
2022-12-20T09:25:28.331Z,3.95
2022-12-20T09:27:56.583Z,5.20
2022-12-20T09:30:23.905Z,7.13
2022-12-20T09:32:50.946Z,6.65
2022-12-20T09:35:22.790Z,5.25
2022-12-20T09:37:50.170Z,6.15
2022-12-20T09:40:22.624Z,7.97
2022-12-20T09:42:50.968Z,5.18
2022-12-20T09:45:31.185Z,5.53
2022-12-20T09:47:58.075Z,4.28
2022-12-20T09:51:12.674Z,8.82
2022-12-20T09:54:03.628Z,2.85
2022-12-20T09:56:37.828Z,7.18
2022-12-20T09:59:13.550Z,8.02
2022-12-20T10:01:45.183Z,2.95
2022-12-20T10:04:23.617Z,7.93
2022-12-20T10:07:06.654Z,5.35
2022-12-20T10:12:33.534Z,7.07
2022-12-20T10:15:38.840Z,9.07
2022-12-20T10:18:15.775Z,4.72
2022-12-20T10:20:42.557Z,7.13
2022-12-20T10:23:32.697Z,7.82
2022-12-20T10:26:01.022Z,8.10
2022-12-20T10:28:35.056Z,5.68
2022-12-20T10:31:05.207Z,8.30
2022-12-20T10:33:33.218Z,4.75
2022-12-20T10:36:22.063Z,8.10
2022-12-20T10:38:54.315Z,9.18
2022-12-20T10:41:26.924Z,7.15
2022-12-20T10:44:04.484Z,4.50
2022-12-20T10:46:42.558Z,7.50
2022-12-20T10:49:37.229Z,6.88
2022-12-20T10:52:09.924Z,7.43
2022-12-20T10:54:45.401Z,4.43
2022-12-20T10:57:27.261Z,6.25
2022-12-20T11:00:00.651Z,5.83
2022-12-20T11:02:42.340Z,7.18
2022-12-20T11:05:10.482Z,5.70
2022-12-20T11:07:43.583Z,7.35
2022-12-20T11:10:21.601Z,4.95
2022-12-20T11:12:55.637Z,4.20
2022-12-20T11:15:34.094Z,8.55
2022-12-20T11:18:17.369Z,8.70
2022-12-20T11:21:17.015Z,7.80
2022-12-20T11:24:10.294Z,8.57
2022-12-20T11:27:12.029Z,8.02
2022-12-20T11:30:14.414Z,4.57
2022-12-20T11:33:15.848Z,5.68
2022-12-20T11:36:00.131Z,6.28
2022-12-20T11:38:48.139Z,5.35
2022-12-20T11:41:27.339Z,8.20
2022-12-20T11:44:27.706Z,6.38
2022-12-20T11:47:32.898Z,6.78
2022-12-20T11:50:09.504Z,9.05
2022-12-20T11:52:43.474Z,10.98
2022-12-20T11:55:13.110Z,9.93
2022-12-20T11:58:17.481Z,8.10
2022-12-20T12:00:50.039Z,8.65
2022-12-20T12:03:35.622Z,6.63
2022-12-20T12:06:27.123Z,5.82
2022-12-20T12:09:13.525Z,5.90
2022-12-20T12:14:55.203Z,7.72
2022-12-20T12:17:47.181Z,12.88
2022-12-20T12:20:32.264Z,9.38
2022-12-20T12:23:23.733Z,7.20
2022-12-20T12:25:50.805Z,8.80
2022-12-20T12:28:19.586Z,5.72
2022-12-20T12:30:54.570Z,6.55
2022-12-20T12:33:37.770Z,6.78
2022-12-20T12:36:26.843Z,6.05
2022-12-20T12:39:19.465Z,7.85
2022-12-20T12:42:05.036Z,4.18
2022-12-20T12:44:43.221Z,6.47
2022-12-20T12:47:22.001Z,7.35
2022-12-20T12:49:51.814Z,7.40
2022-12-20T12:52:52.258Z,7.65
2022-12-20T12:55:36.828Z,5.53
2022-12-20T12:58:23.953Z,7.05
2022-12-20T13:00:55.321Z,8.25
2022-12-20T13:03:40.631Z,6.05
2022-12-20T13:06:25.712Z,5.78
2022-12-20T13:08:58.642Z,5.35
2022-12-20T13:11:42.738Z,8.82
2022-12-20T13:14:24.876Z,5.65
2022-12-20T13:17:14.687Z,6.50
2022-12-20T13:19:52.283Z,6.95
2022-12-20T13:22:26.367Z,7.25
2022-12-20T13:25:04.123Z,5.50
2022-12-20T13:27:41.606Z,6.30
2022-12-20T13:30:11.724Z,5.85
2022-12-20T13:32:47.549Z,6.15
2022-12-20T13:35:28.742Z,8.55
2022-12-20T13:38:04.661Z,7.93
2022-12-20T13:40:50.095Z,10.63
2022-12-20T13:43:19.642Z,7.38
2022-12-20T13:46:02.383Z,6.32
2022-12-20T13:50:58.773Z,10.52
2022-12-20T13:53:27.922Z,8.82
2022-12-20T13:55:55.742Z,12.30
2022-12-20T13:58:27.894Z,6.95
2022-12-20T14:01:09.749Z,8.75
2022-12-20T14:03:42.003Z,10.07
2022-12-20T14:06:14.409Z,7.38
2022-12-20T14:08:48.136Z,9.00
2022-12-20T14:11:18.675Z,6.85
2022-12-20T14:14:00.691Z,8.15
2022-12-20T14:16:29.642Z,6.95
2022-12-20T14:19:12.925Z,7.53
2022-12-20T14:21:46.000Z,7.60
2022-12-20T14:24:19.973Z,6.38
2022-12-20T14:26:48.597Z,8.05
2022-12-20T14:29:31.340Z,6.55
2022-12-20T14:31:58.330Z,7.60
2022-12-20T14:34:41.359Z,6.22
2022-12-20T14:37:28.785Z,7.03
2022-12-20T14:40:04.173Z,9.20
2022-12-20T14:42:36.212Z,7.53
2022-12-20T14:45:07.021Z,8.70
2022-12-20T14:47:34.151Z,8.85
2022-12-20T14:50:17.599Z,10.57
2022-12-20T14:52:46.129Z,10.77
2022-12-20T14:55:32.351Z,9.63
2022-12-20T14:57:59.805Z,7.95
2022-12-20T15:00:34.988Z,9.38
2022-12-20T15:03:03.981Z,9.05
2022-12-20T15:05:34.245Z,8.20
2022-12-20T15:08:24.222Z,10.75
2022-12-20T15:10:56.043Z,9.35
2022-12-20T15:13:35.534Z,9.65
2022-12-20T15:16:04.969Z,9.82
2022-12-20T15:18:32.098Z,15.35
2022-12-20T15:21:05.047Z,14.70
2022-12-20T15:23:32.428Z,20.58
2022-12-20T15:25:59.631Z,18.40
2022-12-20T15:28:27.609Z,33.17
2022-12-20T15:30:55.804Z,19.15
2022-12-20T15:33:32.522Z,22.67
2022-12-20T15:35:59.449Z,20.92
2022-12-20T15:38:47.656Z,15.52
2022-12-20T15:41:24.200Z,11.13
2022-12-20T15:43:55.254Z,11.05
2022-12-20T15:46:22.523Z,8.25
2022-12-20T15:48:49.464Z,10.77
2022-12-20T15:51:34.812Z,10.73
2022-12-20T15:54:04.231Z,10.13
2022-12-20T15:56:31.310Z,12.15
2022-12-20T15:58:58.123Z,10.23
2022-12-20T16:01:32.099Z,9.93
2022-12-20T16:04:03.513Z,11.88
2022-12-20T16:06:30.354Z,10.98
2022-12-20T16:08:57.261Z,12.75
2022-12-20T16:11:31.384Z,11.57
2022-12-20T16:13:59.918Z,11.38
2022-12-20T16:16:33.056Z,10.73
2022-12-20T16:19:01.210Z,9.60
2022-12-20T16:21:32.407Z,12.35
2022-12-20T16:23:59.432Z,12.02
2022-12-20T16:26:26.924Z,11.98
2022-12-20T16:28:55.206Z,11.50
2022-12-20T16:31:25.967Z,12.55
2022-12-20T16:33:53.703Z,10.82
2022-12-20T16:36:20.663Z,11.93
2022-12-20T16:38:47.570Z,12.77
2022-12-20T16:41:16.083Z,13.77
2022-12-20T16:43:43.760Z,16.95
2022-12-20T16:46:13.012Z,16.15
2022-12-20T16:48:41.810Z,15.35
2022-12-20T16:51:24.697Z,12.35
2022-12-20T16:56:40.913Z,10.38
2022-12-20T16:59:19.217Z,13.85
2022-12-20T17:01:47.949Z,13.52
2022-12-20T17:04:17.467Z,24.30
2022-12-20T17:06:45.265Z,13.52
2022-12-20T17:09:12.623Z,15.10
2022-12-20T17:11:39.769Z,13.73
2022-12-20T17:14:12.322Z,12.15
2022-12-20T17:16:40.407Z,15.27
2022-12-20T17:19:07.569Z,13.98
2022-12-20T17:24:23.464Z,17.48
2022-12-20T17:26:50.410Z,16.67
2022-12-20T17:29:17.892Z,20.85
2022-12-20T17:31:46.537Z,18.55
2022-12-20T17:34:23.553Z,28.50
2022-12-20T17:36:53.226Z,16.23
2022-12-20T17:39:21.240Z,17.13
2022-12-20T17:41:49.642Z,17.13
2022-12-20T17:44:34.625Z,16.80
2022-12-20T17:47:01.591Z,17.30
2022-12-20T17:49:28.356Z,16.08
2022-12-20T17:51:56.232Z,19.60
2022-12-20T17:54:31.998Z,18.90
2022-12-20T17:57:03.673Z,20.63
2022-12-20T17:59:30.564Z,24.50
2022-12-20T18:01:57.522Z,22.15
2022-12-20T18:04:24.462Z,19.15
2022-12-20T18:06:54.025Z,21.00
2022-12-20T18:09:22.649Z,20.77
2022-12-20T18:11:49.579Z,21.10
2022-12-20T18:14:16.588Z,20.67
2022-12-20T18:16:43.746Z,22.15
2022-12-20T18:19:16.880Z,20.98
2022-12-20T18:21:43.697Z,19.40
2022-12-20T18:24:15.233Z,26.65
2022-12-20T18:26:42.763Z,30.60
2022-12-20T18:29:10.855Z,30.95
2022-12-20T18:31:38.238Z,24.58
2022-12-20T18:34:05.461Z,30.67
2022-12-20T18:36:37.146Z,26.52
2022-12-20T18:39:06.691Z,31.50
2022-12-20T18:41:37.791Z,36.67
2022-12-20T18:44:06.892Z,33.40
2022-12-20T18:46:34.096Z,29.27
2022-12-20T18:49:02.248Z,38.25
2022-12-20T18:51:33.121Z,32.92
2022-12-20T18:54:00.728Z,35.22
2022-12-20T18:56:31.033Z,39.72
2022-12-20T18:59:06.297Z,38.22
2022-12-20T19:01:38.417Z,33.53
2022-12-20T19:04:07.191Z,32.53
2022-12-20T19:06:34.409Z,36.40
2022-12-20T19:09:08.766Z,39.13
2022-12-20T19:11:36.091Z,38.35
2022-12-20T19:14:03.761Z,35.60
2022-12-20T19:16:32.665Z,37.17
2022-12-20T19:19:01.450Z,48.97
2022-12-20T19:21:36.271Z,45.50
2022-12-20T19:24:06.764Z,50.88
2022-12-20T19:26:36.314Z,43.33
2022-12-20T19:29:04.547Z,44.22
2022-12-20T19:31:33.425Z,49.42
2022-12-20T19:34:03.359Z,42.28
2022-12-20T19:36:34.425Z,49.65
2022-12-20T19:39:03.469Z,43.45
2022-12-20T19:41:32.057Z,50.90
2022-12-20T19:43:59.334Z,60.13
2022-12-20T19:46:29.837Z,49.97
2022-12-20T19:48:58.479Z,59.97
2022-12-20T19:51:26.085Z,66.78
2022-12-20T19:53:54.181Z,63.97
2022-12-20T19:56:23.369Z,53.45
2022-12-20T19:58:52.908Z,57.63
2022-12-20T20:01:21.286Z,63.80
2022-12-20T20:03:48.285Z,63.83
2022-12-20T20:06:15.220Z,55.25
2022-12-20T20:08:42.125Z,46.47
2022-12-20T20:11:10.731Z,58.35
2022-12-20T20:13:38.593Z,55.58
2022-12-20T20:16:06.451Z,64.15
2022-12-20T20:18:35.447Z,67.03
2022-12-20T20:21:07.323Z,78.78
2022-12-20T20:23:35.052Z,75.35
2022-12-20T20:26:01.831Z,59.67
2022-12-20T20:28:33.132Z,64.60
2022-12-20T20:31:03.373Z,60.08
2022-12-20T20:33:31.146Z,62.33
2022-12-20T20:36:00.996Z,74.30
2022-12-20T20:38:32.176Z,69.05
2022-12-20T20:40:58.935Z,72.88
2022-12-20T20:43:26.133Z,65.22
2022-12-20T20:45:53.188Z,71.30
2022-12-20T20:48:20.496Z,84.18
2022-12-20T20:50:47.323Z,81.93
2022-12-20T20:53:14.293Z,76.55
2022-12-20T20:55:41.469Z,96.43
2022-12-20T20:58:08.243Z,88.57
2022-12-20T21:00:35.274Z,73.50
2022-12-20T21:03:02.540Z,98.15
2022-12-20T21:08:16.249Z,77.88
2022-12-20T21:10:43.253Z,94.60
2022-12-20T21:13:10.432Z,82.25
2022-12-20T21:15:37.773Z,79.93
2022-12-20T21:18:04.653Z,97.07
2022-12-20T21:20:31.328Z,94.85
2022-12-20T21:22:58.258Z,80.88
2022-12-20T21:25:25.025Z,106.57
2022-12-20T21:27:51.675Z,89.82
2022-12-20T21:30:18.385Z,88.50
2022-12-20T21:32:45.826Z,125.30
2022-12-20T21:35:12.680Z,110.18
2022-12-20T21:37:39.418Z,93.05
2022-12-20T21:40:06.848Z,97.93
2022-12-20T21:42:33.549Z,92.63
2022-12-20T21:45:00.289Z,77.47
2022-12-20T21:47:27.281Z,89.55
2022-12-20T21:49:54.008Z,97.32
2022-12-20T21:52:20.776Z,96.32
2022-12-20T21:54:47.431Z,95.82
2022-12-20T21:57:14.401Z,79.75
2022-12-20T21:59:41.183Z,95.00
2022-12-20T22:02:09.800Z,97.05
2022-12-20T22:04:36.700Z,94.65
2022-12-20T22:07:03.452Z,89.70
2022-12-20T22:09:30.160Z,94.68
2022-12-20T22:11:56.956Z,101.13
2022-12-20T22:14:23.843Z,85.30
2022-12-20T22:16:50.769Z,105.18
2022-12-20T22:19:18.553Z,106.32
2022-12-20T22:21:45.280Z,95.72
2022-12-20T22:24:12.037Z,93.90
2022-12-20T22:26:41.020Z,75.70
2022-12-20T22:29:08.452Z,96.25
2022-12-20T22:31:36.555Z,97.00
2022-12-20T22:34:04.727Z,91.55
2022-12-20T22:36:31.773Z,86.97
2022-12-20T22:38:58.990Z,81.57
2022-12-20T22:41:29.263Z,94.43
2022-12-20T22:43:58.212Z,85.57
2022-12-20T22:49:18.441Z,78.55
2022-12-20T22:51:53.698Z,85.30
2022-12-20T22:54:29.344Z,80.65
2022-12-20T22:56:56.238Z,73.72
2022-12-20T22:59:22.885Z,85.95
2022-12-20T23:01:49.761Z,88.00
2022-12-20T23:04:17.017Z,86.75
2022-12-20T23:06:43.832Z,90.90
2022-12-20T23:09:10.542Z,85.55
2022-12-20T23:11:55.833Z,93.75
2022-12-20T23:14:41.930Z,91.03
2022-12-20T23:17:10.213Z,86.30
2022-12-20T23:19:55.963Z,93.38
2022-12-20T23:22:40.222Z,98.45
2022-12-20T23:25:25.570Z,85.57
2022-12-20T23:27:52.673Z,80.88
2022-12-20T23:30:22.996Z,78.25
2022-12-20T23:32:49.733Z,85.85
2022-12-20T23:35:18.781Z,74.35
2022-12-20T23:37:46.066Z,81.25
2022-12-20T23:40:14.537Z,91.97
2022-12-20T23:42:41.245Z,88.35
2022-12-20T23:45:08.720Z,82.43
2022-12-20T23:47:35.555Z,90.38
2022-12-20T23:50:02.760Z,82.28
2022-12-20T23:52:29.601Z,89.93
2022-12-20T23:54:56.267Z,81.82
2022-12-20T23:57:22.928Z,97.72
2022-12-20T23:59:49.842Z,74.07
